sensor_id;sensor_type;location;lat;lon;timestamp;pressure;altitude;pressure_sealevel;temperature;humidity
62708;BME280;48769;51.624;5.886;2022-12-05T00:01:35;101560.81;;;5.22;91.20
62708;BME280;48769;51.624;5.886;2022-12-05T00:04:04;101569.59;;;5.21;91.72
62708;BME280;48769;51.624;5.886;2022-12-05T00:06:30;101570.44;;;5.21;91.45
62708;BME280;48769;51.624;5.886;2022-12-05T00:08:57;101567.72;;;5.27;91.38
62708;BME280;48769;51.624;5.886;2022-12-05T00:11:26;101567.78;;;5.23;91.52
62708;BME280;48769;51.624;5.886;2022-12-05T00:13:52;101573.91;;;5.23;91.74
62708;BME280;48769;51.624;5.886;2022-12-05T00:16:21;101565.31;;;5.15;91.54
62708;BME280;48769;51.624;5.886;2022-12-05T00:18:47;101564.66;;;5.02;92.37
62708;BME280;48769;51.624;5.886;2022-12-05T00:21:21;101567.03;;;5.16;92.30
62708;BME280;48769;51.624;5.886;2022-12-05T00:23:48;101559.97;;;5.21;92.38
62708;BME280;48769;51.624;5.886;2022-12-05T00:26:13;101556.38;;;5.27;91.91
62708;BME280;48769;51.624;5.886;2022-12-05T00:28:39;101562.63;;;5.18;91.72
62708;BME280;48769;51.624;5.886;2022-12-05T00:31:07;101558.19;;;5.23;91.93
62708;BME280;48769;51.624;5.886;2022-12-05T00:33:33;101559.06;;;5.22;92.14
62708;BME280;48769;51.624;5.886;2022-12-05T00:36:07;101555.63;;;5.20;92.03
62708;BME280;48769;51.624;5.886;2022-12-05T00:38:34;101555.63;;;5.19;92.07
62708;BME280;48769;51.624;5.886;2022-12-05T00:41:04;101552.88;;;5.26;92.31
62708;BME280;48769;51.624;5.886;2022-12-05T00:43:30;101558.97;;;5.28;92.00
62708;BME280;48769;51.624;5.886;2022-12-05T00:45:55;101546.66;;;5.32;92.41
62708;BME280;48769;51.624;5.886;2022-12-05T00:48:20;101543.13;;;5.34;91.48
62708;BME280;48769;51.624;5.886;2022-12-05T00:50:46;101548.25;;;5.41;92.10
62708;BME280;48769;51.624;5.886;2022-12-05T00:53:11;101544.66;;;5.46;91.38
62708;BME280;48769;51.624;5.886;2022-12-05T00:55:36;101549.06;;;5.44;91.41
62708;BME280;48769;51.624;5.886;2022-12-05T00:58:02;101547.31;;;5.45;91.00
62708;BME280;48769;51.624;5.886;2022-12-05T01:00:27;101551.91;;;5.32;91.59
62708;BME280;48769;51.624;5.886;2022-12-05T01:02:54;101558.78;;;5.37;91.75
62708;BME280;48769;51.624;5.886;2022-12-05T01:05:19;101547.56;;;5.29;92.12
62708;BME280;48769;51.624;5.886;2022-12-05T01:07:44;101555.34;;;5.35;91.84
62708;BME280;48769;51.624;5.886;2022-12-05T01:10:10;101555.44;;;5.31;92.08
62708;BME280;48769;51.624;5.886;2022-12-05T01:12:35;101552.81;;;5.29;92.11
62708;BME280;48769;51.624;5.886;2022-12-05T01:15:00;101563.94;;;5.42;91.79
62708;BME280;48769;51.624;5.886;2022-12-05T01:17:25;101565.59;;;5.48;91.42
62708;BME280;48769;51.624;5.886;2022-12-05T01:19:51;101568.09;;;5.54;91.74
62708;BME280;48769;51.624;5.886;2022-12-05T01:22:16;101564.63;;;5.52;91.31
62708;BME280;48769;51.624;5.886;2022-12-05T01:24:42;101566.44;;;5.50;91.01
62708;BME280;48769;51.624;5.886;2022-12-05T01:27:07;101565.66;;;5.45;91.12
62708;BME280;48769;51.624;5.886;2022-12-05T01:29:32;101571.72;;;5.47;91.20
62708;BME280;48769;51.624;5.886;2022-12-05T01:31:58;101575.13;;;5.52;91.64
62708;BME280;48769;51.624;5.886;2022-12-05T01:34:23;101565.56;;;5.49;91.65
62708;BME280;48769;51.624;5.886;2022-12-05T01:36:49;101568.16;;;5.51;91.44
62708;BME280;48769;51.624;5.886;2022-12-05T01:39:15;101562.88;;;5.52;91.50
62708;BME280;48769;51.624;5.886;2022-12-05T01:41:44;101576.81;;;5.56;91.53
62708;BME280;48769;51.624;5.886;2022-12-05T01:46:37;101579.38;;;5.59;91.42
62708;BME280;48769;51.624;5.886;2022-12-05T01:49:08;101578.47;;;5.60;91.09
62708;BME280;48769;51.624;5.886;2022-12-05T01:51:37;101583.59;;;5.66;91.10
62708;BME280;48769;51.624;5.886;2022-12-05T01:54:04;101590.66;;;5.61;90.82
62708;BME280;48769;51.624;5.886;2022-12-05T01:56:31;101590.66;;;5.61;90.97
62708;BME280;48769;51.624;5.886;2022-12-05T01:58:58;101588.84;;;5.66;90.70
62708;BME280;48769;51.624;5.886;2022-12-05T02:01:24;101589.59;;;5.73;90.59
62708;BME280;48769;51.624;5.886;2022-12-05T02:03:51;101588.78;;;5.69;90.75
62708;BME280;48769;51.624;5.886;2022-12-05T02:06:20;101587.19;;;5.60;90.61
62708;BME280;48769;51.624;5.886;2022-12-05T02:08:47;101590.72;;;5.58;91.19
62708;BME280;48769;51.624;5.886;2022-12-05T02:11:13;101594.19;;;5.60;91.05
62708;BME280;48769;51.624;5.886;2022-12-05T02:13:53;101590.56;;;5.67;90.95
62708;BME280;48769;51.624;5.886;2022-12-05T02:16:34;101589.06;;;5.54;90.87
62708;BME280;48769;51.624;5.886;2022-12-05T02:30:38;101590.50;;;5.70;91.01
62708;BME280;48769;51.624;5.886;2022-12-05T02:36:03;101585.59;;;5.53;91.61
62708;BME280;48769;51.624;5.886;2022-12-05T02:38:59;101582.97;;;5.52;91.79
62708;BME280;48769;51.624;5.886;2022-12-05T02:41:34;101588.16;;;5.56;91.86
62708;BME280;48769;51.624;5.886;2022-12-05T02:44:06;101587.28;;;5.56;91.93
62708;BME280;48769;51.624;5.886;2022-12-05T02:46:36;101594.25;;;5.55;92.11
62708;BME280;48769;51.624;5.886;2022-12-05T02:49:07;101595.09;;;5.59;92.30
62708;BME280;48769;51.624;5.886;2022-12-05T02:51:37;101597.88;;;5.50;92.76
62708;BME280;48769;51.624;5.886;2022-12-05T02:54:07;101598.75;;;5.49;92.96
62708;BME280;48769;51.624;5.886;2022-12-05T02:56:36;101594.34;;;5.51;93.48
62708;BME280;48769;51.624;5.886;2022-12-05T02:59:01;101596.25;;;5.43;93.88
62708;BME280;48769;51.624;5.886;2022-12-05T03:01:29;101603.94;;;5.53;93.86
62708;BME280;48769;51.624;5.886;2022-12-05T03:03:57;101597.88;;;5.50;93.85
62708;BME280;48769;51.624;5.886;2022-12-05T03:06:32;101590.72;;;5.58;94.11
62708;BME280;48769;51.624;5.886;2022-12-05T03:09:12;101597.72;;;5.59;94.07
62708;BME280;48769;51.624;5.886;2022-12-05T03:11:53;101603.88;;;5.55;93.96
62708;BME280;48769;51.624;5.886;2022-12-05T03:14:25;101596.88;;;5.57;94.29
62708;BME280;48769;51.624;5.886;2022-12-05T03:16:57;101597.56;;;5.65;94.45
62708;BME280;48769;51.624;5.886;2022-12-05T03:19:29;101596.69;;;5.66;94.31
62708;BME280;48769;51.624;5.886;2022-12-05T03:22:00;101596.72;;;5.65;94.18
62708;BME280;48769;51.624;5.886;2022-12-05T03:24:27;101586.28;;;5.61;94.37
62708;BME280;48769;51.624;5.886;2022-12-05T03:27:08;101589.97;;;5.51;95.15
62708;BME280;48769;51.624;5.886;2022-12-05T03:29:55;101586.59;;;5.46;95.26
62708;BME280;48769;51.624;5.886;2022-12-05T03:32:41;101586.59;;;5.46;96.00
62708;BME280;48769;51.624;5.886;2022-12-05T03:35:16;101593.56;;;5.46;96.28
62708;BME280;48769;51.624;5.886;2022-12-05T03:38:04;101594.41;;;5.48;96.44
62708;BME280;48769;51.624;5.886;2022-12-05T03:40:46;101589.16;;;5.48;96.45
62708;BME280;48769;51.624;5.886;2022-12-05T03:43:39;101598.69;;;5.53;96.87
62708;BME280;48769;51.624;5.886;2022-12-05T03:46:34;101595.22;;;5.51;96.52
62708;BME280;48769;51.624;5.886;2022-12-05T03:49:17;101589.13;;;5.51;96.45
62708;BME280;48769;51.624;5.886;2022-12-05T03:51:54;101589.16;;;5.48;96.59
62708;BME280;48769;51.624;5.886;2022-12-05T03:54:30;101599.53;;;5.54;97.37
62708;BME280;48769;51.624;5.886;2022-12-05T03:57:19;101598.00;;;5.44;97.30
62708;BME280;48769;51.624;5.886;2022-12-05T03:59:54;101598.75;;;5.49;96.87
62708;BME280;48769;51.624;5.886;2022-12-05T04:02:29;101592.69;;;5.47;97.38
62708;BME280;48769;51.624;5.886;2022-12-05T04:05:06;101590.72;;;5.58;97.27
62708;BME280;48769;51.624;5.886;2022-12-05T04:07:36;101592.47;;;5.59;96.88
62708;BME280;48769;51.624;5.886;2022-12-05T04:10:07;101595.84;;;5.64;97.06
62708;BME280;48769;51.624;5.886;2022-12-05T04:12:38;101600.06;;;5.73;97.27
62708;BME280;48769;51.624;5.886;2022-12-05T04:15:13;101596.66;;;5.68;96.88
62708;BME280;48769;51.624;5.886;2022-12-05T04:17:44;101595.75;;;5.69;96.94
62708;BME280;48769;51.624;5.886;2022-12-05T04:20:17;101604.56;;;5.66;96.56
62708;BME280;48769;51.624;5.886;2022-12-05T04:23:20;101604.50;;;5.69;96.71
62708;BME280;48769;51.624;5.886;2022-12-05T04:31:39;101608.06;;;5.65;96.96
62708;BME280;48769;51.624;5.886;2022-12-05T04:34:07;101598.53;;;5.61;96.96
62708;BME280;48769;51.624;5.886;2022-12-05T04:36:44;101602.88;;;5.62;97.35
62708;BME280;48769;51.624;5.886;2022-12-05T04:39:33;101605.59;;;5.57;97.63
62708;BME280;48769;51.624;5.886;2022-12-05T04:42:04;101604.69;;;5.60;97.36
62708;BME280;48769;51.624;5.886;2022-12-05T04:44:37;101607.28;;;5.60;97.93
62708;BME280;48769;51.624;5.886;2022-12-05T04:47:07;101614.19;;;5.64;98.37
62708;BME280;48769;51.624;5.886;2022-12-05T04:49:34;101611.56;;;5.66;97.82
62708;BME280;48769;51.624;5.886;2022-12-05T04:52:06;101616.81;;;5.64;98.14
62708;BME280;48769;51.624;5.886;2022-12-05T04:54:48;101615.84;;;5.70;98.03
62708;BME280;48769;51.624;5.886;2022-12-05T04:57:18;101614.16;;;5.67;97.91
62708;BME280;48769;51.624;5.886;2022-12-05T04:59:46;101615.88;;;5.68;98.09
62708;BME280;48769;51.624;5.886;2022-12-05T05:02:14;101615.06;;;5.66;98.11
62708;BME280;48769;51.624;5.886;2022-12-05T05:04:45;101616.66;;;5.73;98.10
62708;BME280;48769;51.624;5.886;2022-12-05T05:07:12;101609.69;;;5.72;98.13
62708;BME280;48769;51.624;5.886;2022-12-05T05:09:38;101608.00;;;5.68;98.45
62708;BME280;48769;51.624;5.886;2022-12-05T05:12:04;101614.94;;;5.72;97.97
62708;BME280;48769;51.624;5.886;2022-12-05T05:14:30;101619.22;;;5.75;98.46
62708;BME280;48769;51.624;5.886;2022-12-05T05:16:56;101620.25;;;5.69;98.23
62708;BME280;48769;51.624;5.886;2022-12-05T05:19:22;101621.03;;;5.73;98.33
62708;BME280;48769;51.624;5.886;2022-12-05T05:21:47;101623.56;;;5.77;98.39
62708;BME280;48769;51.624;5.886;2022-12-05T05:24:13;101617.41;;;5.78;97.77
62708;BME280;48769;51.624;5.886;2022-12-05T05:26:42;101620.13;;;5.75;97.81
62708;BME280;48769;51.624;5.886;2022-12-05T05:29:08;101612.13;;;5.81;98.23
62708;BME280;48769;51.624;5.886;2022-12-05T05:31:34;101626.06;;;5.83;97.50
62708;BME280;48769;51.624;5.886;2022-12-05T05:34:00;101616.44;;;5.85;97.75
62708;BME280;48769;51.624;5.886;2022-12-05T05:36:26;101625.22;;;5.81;97.48
62708;BME280;48769;51.624;5.886;2022-12-05T05:38:54;101627.00;;;5.81;97.63
62708;BME280;48769;51.624;5.886;2022-12-05T05:43:46;101625.28;;;5.78;97.70
62708;BME280;48769;51.624;5.886;2022-12-05T05:46:13;101632.28;;;5.79;97.59
62708;BME280;48769;51.624;5.886;2022-12-05T05:48:39;101621.72;;;5.82;97.39
62708;BME280;48769;51.624;5.886;2022-12-05T05:51:06;101621.78;;;5.79;97.19
62708;BME280;48769;51.624;5.886;2022-12-05T05:53:32;101626.06;;;5.83;97.23
62708;BME280;48769;51.624;5.886;2022-12-05T05:56:05;101625.16;;;5.84;97.39
62708;BME280;48769;51.624;5.886;2022-12-05T05:58:31;101622.47;;;5.89;97.42
62708;BME280;48769;51.624;5.886;2022-12-05T06:01:17;101629.59;;;5.82;97.38
62708;BME280;48769;51.624;5.886;2022-12-05T06:03:46;101624.31;;;5.84;97.42
62708;BME280;48769;51.624;5.886;2022-12-05T06:06:13;101632.16;;;5.85;97.70
62708;BME280;48769;51.624;5.886;2022-12-05T06:08:41;101625.03;;;5.92;97.37
62708;BME280;48769;51.624;5.886;2022-12-05T06:11:18;101634.56;;;5.98;97.16
62708;BME280;48769;51.624;5.886;2022-12-05T06:13:44;101637.06;;;6.04;97.46
62708;BME280;48769;51.624;5.886;2022-12-05T06:16:12;101633.88;;;5.86;97.16
62708;BME280;48769;51.624;5.886;2022-12-05T06:18:38;101636.44;;;5.90;97.47
62708;BME280;48769;51.624;5.886;2022-12-05T06:21:04;101641.63;;;5.94;97.76
62708;BME280;48769;51.624;5.886;2022-12-05T06:23:34;101637.25;;;5.95;97.13
62708;BME280;48769;51.624;5.886;2022-12-05T06:26:00;101632.81;;;5.98;96.65
62708;BME280;48769;51.624;5.886;2022-12-05T06:28:26;101636.50;;;5.86;97.51
62708;BME280;48769;51.624;5.886;2022-12-05T06:30:51;101640.75;;;5.94;97.29
62708;BME280;48769;51.624;5.886;2022-12-05T06:33:17;101644.16;;;5.99;97.86
62708;BME280;48769;51.624;5.886;2022-12-05T06:35:43;101643.16;;;6.06;97.77
62708;BME280;48769;51.624;5.886;2022-12-05T06:38:09;101651.06;;;6.03;97.31
62708;BME280;48769;51.624;5.886;2022-12-05T06:40:41;101649.41;;;5.99;97.43
62708;BME280;48769;51.624;5.886;2022-12-05T06:43:07;101644.97;;;6.02;97.75
62708;BME280;48769;51.624;5.886;2022-12-05T06:45:32;101645.78;;;6.06;97.48
62708;BME280;48769;51.624;5.886;2022-12-05T06:47:58;101645.88;;;6.00;97.63
62708;BME280;48769;51.624;5.886;2022-12-05T06:50:23;101650.28;;;5.99;97.42
62708;BME280;48769;51.624;5.886;2022-12-05T06:52:49;101641.59;;;5.96;98.00
62708;BME280;48769;51.624;5.886;2022-12-05T06:55:15;101644.97;;;6.02;97.84
62708;BME280;48769;51.624;5.886;2022-12-05T06:57:40;101649.28;;;6.05;97.50
62708;BME280;48769;51.624;5.886;2022-12-05T07:00:06;101651.00;;;6.06;97.86
62708;BME280;48769;51.624;5.886;2022-12-05T07:02:51;101648.28;;;6.12;97.91
62708;BME280;48769;51.624;5.886;2022-12-05T07:05:17;101657.91;;;6.10;98.18
62708;BME280;48769;51.624;5.886;2022-12-05T07:07:42;101650.97;;;6.09;98.27
62708;BME280;48769;51.624;5.886;2022-12-05T07:10:07;101666.69;;;6.09;98.26
62708;BME280;48769;51.624;5.886;2022-12-05T07:12:33;101657.81;;;6.16;98.33
62708;BME280;48769;51.624;5.886;2022-12-05T07:14:59;101662.00;;;6.25;98.30
62708;BME280;48769;51.624;5.886;2022-12-05T07:17:24;101668.06;;;6.28;98.18
62708;BME280;48769;51.624;5.886;2022-12-05T07:19:51;101667.06;;;6.34;97.85
62708;BME280;48769;51.624;5.886;2022-12-05T07:22:17;101671.44;;;6.33;97.70
62708;BME280;48769;51.624;5.886;2022-12-05T07:24:44;101681.94;;;6.33;97.76
62708;BME280;48769;51.624;5.886;2022-12-05T07:27:09;101677.59;;;6.32;97.59
62708;BME280;48769;51.624;5.886;2022-12-05T07:29:35;101683.56;;;6.41;97.66
62708;BME280;48769;51.624;5.886;2022-12-05T07:32:01;101677.44;;;6.40;97.72
62708;BME280;48769;51.624;5.886;2022-12-05T07:34:26;101671.19;;;6.46;97.35
62708;BME280;48769;51.624;5.886;2022-12-05T07:36:51;101677.28;;;6.48;97.61
62708;BME280;48769;51.624;5.886;2022-12-05T07:39:17;101679.03;;;6.47;97.30
62708;BME280;48769;51.624;5.886;2022-12-05T07:41:42;101691.38;;;6.44;97.38
62708;BME280;48769;51.624;5.886;2022-12-05T07:44:11;101684.41;;;6.41;97.12
62708;BME280;48769;51.624;5.886;2022-12-05T07:46:37;101688.75;;;6.44;97.24
62708;BME280;48769;51.624;5.886;2022-12-05T07:49:02;101685.34;;;6.39;97.08
62708;BME280;48769;51.624;5.886;2022-12-05T07:51:28;101685.22;;;6.43;96.69
62708;BME280;48769;51.624;5.886;2022-12-05T07:53:53;101688.06;;;6.34;96.67
62708;BME280;48769;51.624;5.886;2022-12-05T07:56:19;101689.75;;;6.37;96.96
62708;BME280;48769;51.624;5.886;2022-12-05T07:58:47;101695.72;;;6.45;96.94
62708;BME280;48769;51.624;5.886;2022-12-05T08:01:15;101691.31;;;6.47;96.11
62708;BME280;48769;51.624;5.886;2022-12-05T08:03:42;101701.03;;;6.42;96.92
62708;BME280;48769;51.624;5.886;2022-12-05T08:06:13;101701.75;;;6.48;96.47
62708;BME280;48769;51.624;5.886;2022-12-05T08:08:39;101701.69;;;6.51;96.35
62708;BME280;48769;51.624;5.886;2022-12-05T08:11:07;101706.84;;;6.56;96.69
62708;BME280;48769;51.624;5.886;2022-12-05T08:13:33;101707.75;;;6.55;95.58
62708;BME280;48769;51.624;5.886;2022-12-05T08:16:11;101718.31;;;6.52;96.06
62708;BME280;48769;51.624;5.886;2022-12-05T08:18:37;101713.00;;;6.55;95.76
62708;BME280;48769;51.624;5.886;2022-12-05T08:21:07;101717.31;;;6.58;95.93
62708;BME280;48769;51.624;5.886;2022-12-05T08:23:33;101719.97;;;6.56;95.84
62708;BME280;48769;51.624;5.886;2022-12-05T08:26:16;101717.25;;;6.61;95.82
62708;BME280;48769;51.624;5.886;2022-12-05T08:28:42;101724.22;;;6.62;96.31
62708;BME280;48769;51.624;5.886;2022-12-05T08:31:14;101725.03;;;6.65;95.51
62708;BME280;48769;51.624;5.886;2022-12-05T08:33:40;101723.25;;;6.67;95.82
62708;BME280;48769;51.624;5.886;2022-12-05T08:36:08;101735.41;;;6.71;95.68
62708;BME280;48769;51.624;5.886;2022-12-05T08:38:34;101732.81;;;6.70;95.85
62708;BME280;48769;51.624;5.886;2022-12-05T08:41:01;101732.78;;;6.71;95.85
62708;BME280;48769;51.624;5.886;2022-12-05T08:43:28;101732.75;;;6.73;95.99
62708;BME280;48769;51.624;5.886;2022-12-05T08:45:54;101735.41;;;6.71;95.51
62708;BME280;48769;51.624;5.886;2022-12-05T08:48:21;101729.25;;;6.72;95.58
62708;BME280;48769;51.624;5.886;2022-12-05T08:50:46;101731.75;;;6.78;95.35
62708;BME280;48769;51.624;5.886;2022-12-05T08:53:11;101735.22;;;6.81;95.49
62708;BME280;48769;51.624;5.886;2022-12-05T08:55:37;101737.94;;;6.76;95.41
62708;BME280;48769;51.624;5.886;2022-12-05T08:58:03;101746.69;;;6.76;95.19
62708;BME280;48769;51.624;5.886;2022-12-05T09:00:28;101746.81;;;6.69;94.81
62708;BME280;48769;51.624;5.886;2022-12-05T09:02:54;101745.16;;;6.66;94.89
62708;BME280;48769;51.624;5.886;2022-12-05T09:05:20;101747.59;;;6.74;95.08
62708;BME280;48769;51.624;5.886;2022-12-05T09:07:46;101756.34;;;6.74;94.91
62708;BME280;48769;51.624;5.886;2022-12-05T09:10:12;101761.47;;;6.79;95.07
62708;BME280;48769;51.624;5.886;2022-12-05T09:12:37;101758.00;;;6.78;94.43
62708;BME280;48769;51.624;5.886;2022-12-05T09:15:05;101758.97;;;6.76;94.81
62708;BME280;48769;51.624;5.886;2022-12-05T09:17:33;101764.22;;;6.76;94.16
62708;BME280;48769;51.624;5.886;2022-12-05T09:19:59;101762.53;;;6.72;93.89
62708;BME280;48769;51.624;5.886;2022-12-05T09:22:24;101765.16;;;6.72;94.21
62708;BME280;48769;51.624;5.886;2022-12-05T09:24:50;101766.16;;;6.66;93.49
62708;BME280;48769;51.624;5.886;2022-12-05T09:27:15;101767.84;;;6.69;93.83
62708;BME280;48769;51.624;5.886;2022-12-05T09:29:41;101775.00;;;6.61;93.62
62708;BME280;48769;51.624;5.886;2022-12-05T09:32:07;101776.84;;;6.57;94.68
62708;BME280;48769;51.624;5.886;2022-12-05T09:34:32;101773.25;;;6.61;93.85
62708;BME280;48769;51.624;5.886;2022-12-05T09:36:59;101782.78;;;6.65;93.64
62708;BME280;48769;51.624;5.886;2022-12-05T09:39:26;101769.66;;;6.67;93.90
62708;BME280;48769;51.624;5.886;2022-12-05T09:47:27;101778.69;;;6.52;93.87
62708;BME280;48769;51.624;5.886;2022-12-05T09:50:00;101781.25;;;6.55;93.87
62708;BME280;48769;51.624;5.886;2022-12-05T09:52:29;101784.72;;;6.57;93.28
62708;BME280;48769;51.624;5.886;2022-12-05T09:55:02;101794.50;;;6.49;93.14
62708;BME280;48769;51.624;5.886;2022-12-05T09:57:33;101786.66;;;6.46;93.29
62708;BME280;48769;51.624;5.886;2022-12-05T10:00:02;101784.19;;;6.38;93.18
62708;BME280;48769;51.624;5.886;2022-12-05T10:05:10;101783.28;;;6.41;93.43
62708;BME280;48769;51.624;5.886;2022-12-05T10:08:28;101783.41;;;6.35;92.10
62708;BME280;48769;51.624;5.886;2022-12-05T10:10:43;101786.06;;;6.31;93.13
62708;BME280;48769;51.624;5.886;2022-12-05T10:16:04;101783.31;;;6.39;93.46
62708;BME280;48769;51.624;5.886;2022-12-05T10:18:39;101784.16;;;6.41;92.95
62708;BME280;48769;51.624;5.886;2022-12-05T10:26:21;101784.78;;;6.54;92.40
62708;BME280;48769;51.624;5.886;2022-12-05T10:28:56;101785.66;;;6.53;92.43
62708;BME280;48769;51.624;5.886;2022-12-05T10:31:29;101782.16;;;6.54;92.09
62708;BME280;48769;51.624;5.886;2022-12-05T10:34:02;101789.22;;;6.50;91.53
62708;BME280;48769;51.624;5.886;2022-12-05T10:36:30;101780.50;;;6.48;91.81
62708;BME280;48769;51.624;5.886;2022-12-05T10:38:59;101786.56;;;6.52;91.98
62708;BME280;48769;51.624;5.886;2022-12-05T10:41:24;101779.59;;;6.51;91.95
62708;BME280;48769;51.624;5.886;2022-12-05T10:43:50;101782.97;;;6.56;91.53
62708;BME280;48769;51.624;5.886;2022-12-05T10:46:18;101783.94;;;6.52;91.35
62708;BME280;48769;51.624;5.886;2022-12-05T10:48:44;101789.09;;;6.57;90.99
62708;BME280;48769;51.624;5.886;2022-12-05T10:51:15;101784.78;;;6.54;91.22
62708;BME280;48769;51.624;5.886;2022-12-05T10:53:43;101785.47;;;6.62;91.41
62708;BME280;48769;51.624;5.886;2022-12-05T10:56:40;101785.47;;;6.64;90.73
62708;BME280;48769;51.624;5.886;2022-12-05T10:59:08;101781.03;;;6.66;91.53
62708;BME280;48769;51.624;5.886;2022-12-05T11:01:43;101779.41;;;6.60;91.29
62708;BME280;48769;51.624;5.886;2022-12-05T11:04:31;101772.41;;;6.59;90.74
62708;BME280;48769;51.624;5.886;2022-12-05T11:07:04;101770.91;;;6.46;91.18
62708;BME280;48769;51.624;5.886;2022-12-05T11:09:34;101775.13;;;6.54;91.59
62708;BME280;48769;51.624;5.886;2022-12-05T11:12:21;101766.28;;;6.59;91.55
62708;BME280;48769;51.624;5.886;2022-12-05T11:17:35;101753.34;;;6.51;91.41
62708;BME280;48769;51.624;5.886;2022-12-05T11:20:31;101753.28;;;6.54;91.22
62708;BME280;48769;51.624;5.886;2022-12-05T11:22:55;101750.03;;;6.40;91.57
62708;BME280;48769;51.624;5.886;2022-12-05T11:27:53;101757.78;;;6.47;92.34
62708;BME280;48769;51.624;5.886;2022-12-05T11:30:20;101758.75;;;6.42;91.95
62708;BME280;48769;51.624;5.886;2022-12-05T11:32:46;101761.31;;;6.45;91.98
62708;BME280;48769;51.624;5.886;2022-12-05T11:40:13;101762.75;;;6.60;91.68
62708;BME280;48769;51.624;5.886;2022-12-05T11:42:54;101761.91;;;6.59;91.17
62708;BME280;48769;51.624;5.886;2022-12-05T11:46:04;101767.16;;;6.59;91.44
62708;BME280;48769;51.624;5.886;2022-12-05T11:51:39;101766.78;;;6.77;91.08
62708;BME280;48769;51.624;5.886;2022-12-05T11:59:26;101766.59;;;6.87;90.28
62708;BME280;48769;51.624;5.886;2022-12-05T12:02:00;101757.88;;;6.85;89.87
62708;BME280;48769;51.624;5.886;2022-12-05T12:05:06;101754.44;;;6.83;90.04
62708;BME280;48769;51.624;5.886;2022-12-05T12:07:53;101757.13;;;6.78;89.83
62708;BME280;48769;51.624;5.886;2022-12-05T12:10:44;101758.28;;;6.66;90.08
62708;BME280;48769;51.624;5.886;2022-12-05T12:13:38;101754.03;;;6.59;90.01
62708;BME280;48769;51.624;5.886;2022-12-05T12:24:12;101754.81;;;6.63;91.19
62708;BME280;48769;51.624;5.886;2022-12-05T12:32:30;101759.59;;;6.86;90.48
62708;BME280;48769;51.624;5.886;2022-12-05T12:35:22;101754.34;;;6.86;90.08
62708;BME280;48769;51.624;5.886;2022-12-05T12:38:16;101744.59;;;6.92;90.06
62708;BME280;48769;51.624;5.886;2022-12-05T12:40:55;101743.72;;;6.92;89.49
62708;BME280;48769;51.624;5.886;2022-12-05T12:49:58;101738.31;;;6.98;89.84
62708;BME280;48769;51.624;5.886;2022-12-05T12:52:34;101752.16;;;7.06;89.86
62708;BME280;48769;51.624;5.886;2022-12-05T13:00:22;101737.13;;;7.13;89.63
62708;BME280;48769;51.624;5.886;2022-12-05T13:02:58;101735.59;;;7.02;89.41
62708;BME280;48769;51.624;5.886;2022-12-05T13:05:55;101737.25;;;7.07;90.28
62708;BME280;48769;51.624;5.886;2022-12-05T13:08:27;101739.09;;;7.03;90.18
62708;BME280;48769;51.624;5.886;2022-12-05T13:10:57;101732.94;;;7.04;90.22
62708;BME280;48769;51.624;5.886;2022-12-05T13:13:34;101731.09;;;7.08;90.29
62708;BME280;48769;51.624;5.886;2022-12-05T13:16:04;101726.63;;;7.13;90.51
62708;BME280;48769;51.624;5.886;2022-12-05T13:18:32;101724.72;;;7.19;90.33
62708;BME280;48769;51.624;5.886;2022-12-05T13:21:08;101724.59;;;7.24;89.99
62708;BME280;48769;51.624;5.886;2022-12-05T13:23:49;101727.16;;;7.27;90.07
62708;BME280;48769;51.624;5.886;2022-12-05T13:26:15;101724.56;;;7.25;89.32
62708;BME280;48769;51.624;5.886;2022-12-05T13:28:49;101713.19;;;7.25;89.36
62708;BME280;48769;51.624;5.886;2022-12-05T13:31:15;101721.00;;;7.28;89.77
62708;BME280;48769;51.624;5.886;2022-12-05T13:33:45;101720.75;;;7.37;89.46
62708;BME280;48769;51.624;5.886;2022-12-05T13:36:14;101723.38;;;7.37;89.82
62708;BME280;48769;51.624;5.886;2022-12-05T13:41:58;101724.44;;;7.30;89.89
62708;BME280;48769;51.624;5.886;2022-12-05T13:44:43;101730.53;;;7.32;89.76
62708;BME280;48769;51.624;5.886;2022-12-05T13:47:35;101719.97;;;7.34;89.99
62708;BME280;48769;51.624;5.886;2022-12-05T13:50:13;101727.72;;;7.40;89.74
62708;BME280;48769;51.624;5.886;2022-12-05T13:52:48;101726.81;;;7.41;89.63
62708;BME280;48769;51.624;5.886;2022-12-05T13:55:29;101734.69;;;7.41;89.79
62708;BME280;48769;51.624;5.886;2022-12-05T13:57:57;101727.78;;;7.38;89.94
62708;BME280;48769;51.624;5.886;2022-12-05T14:00:29;101734.69;;;7.41;90.08
62708;BME280;48769;51.624;5.886;2022-12-05T14:07:53;101729.41;;;7.42;90.31
62708;BME280;48769;51.624;5.886;2022-12-05T14:10:38;101734.78;;;7.38;89.95
62708;BME280;48769;51.624;5.886;2022-12-05T14:15:39;101728.91;;;7.26;90.13
62708;BME280;48769;51.624;5.886;2022-12-05T14:31:32;101741.78;;;7.00;92.41
62708;BME280;48769;51.624;5.886;2022-12-05T14:34:15;101741.97;;;6.92;92.99
62708;BME280;48769;51.624;5.886;2022-12-05T14:37:02;101741.00;;;6.95;92.91
62708;BME280;48769;51.624;5.886;2022-12-05T14:42:35;101743.75;;;6.90;93.12
62708;BME280;48769;51.624;5.886;2022-12-05T14:47:54;101752.44;;;6.94;94.27
62708;BME280;48769;51.624;5.886;2022-12-05T14:55:56;101754.34;;;6.86;94.30
62708;BME280;48769;51.624;5.886;2022-12-05T14:59:01;101754.34;;;6.86;94.41
62708;BME280;48769;51.624;5.886;2022-12-05T15:04:20;101755.22;;;6.86;94.77
62708;BME280;48769;51.624;5.886;2022-12-05T15:06:52;101761.28;;;6.90;95.08
62708;BME280;48769;51.624;5.886;2022-12-05T15:11:50;101755.09;;;6.92;94.68
62708;BME280;48769;51.624;5.886;2022-12-05T15:14:19;101751.53;;;6.95;94.70
62708;BME280;48769;51.624;5.886;2022-12-05T15:16:46;101750.72;;;6.93;94.92
62708;BME280;48769;51.624;5.886;2022-12-05T15:19:18;101757.63;;;6.95;94.96
62708;BME280;48769;51.624;5.886;2022-12-05T15:21:51;101751.63;;;6.90;95.17
62708;BME280;48769;51.624;5.886;2022-12-05T15:24:20;101760.44;;;6.88;95.37
62708;BME280;48769;51.624;5.886;2022-12-05T15:26:54;101761.28;;;6.90;95.52